createdAt,value
2023-02-09T00:00:16.944Z,34.91
2023-02-09T00:02:44.990Z,35.03
2023-02-09T00:05:11.695Z,34.28
2023-02-09T00:07:38.285Z,34.65
2023-02-09T00:10:06.213Z,35.03
2023-02-09T00:12:51.355Z,34.46
2023-02-09T00:15:17.994Z,34.65
2023-02-09T00:17:44.581Z,34.35
2023-02-09T00:20:11.414Z,34.40
2023-02-09T00:22:37.944Z,34.12
2023-02-09T00:25:04.766Z,34.59
2023-02-09T00:27:32.272Z,34.50
2023-02-09T00:29:58.901Z,34.75
2023-02-09T00:32:25.418Z,35.11
2023-02-09T00:34:51.968Z,34.64
2023-02-09T00:37:18.465Z,34.56
2023-02-09T00:39:45.664Z,34.73
2023-02-09T00:42:12.192Z,34.75
2023-02-09T00:44:40.328Z,35.02
2023-02-09T00:47:08.289Z,35.35
2023-02-09T00:49:35.050Z,35.00
2023-02-09T00:52:01.646Z,35.22
2023-02-09T00:54:28.360Z,35.44
2023-02-09T00:56:54.932Z,35.57
2023-02-09T00:59:21.490Z,35.79
2023-02-09T01:01:48.008Z,35.58
2023-02-09T01:04:14.659Z,35.45
2023-02-09T01:06:41.220Z,35.57
2023-02-09T01:09:07.854Z,35.09
2023-02-09T01:11:34.357Z,35.38
2023-02-09T01:14:02.381Z,35.52
2023-02-09T01:16:31.486Z,35.93
2023-02-09T01:19:00.209Z,36.16
2023-02-09T01:21:29.593Z,36.26
2023-02-09T01:23:56.593Z,36.34
2023-02-09T01:26:23.243Z,36.82
2023-02-09T01:28:53.091Z,36.86
2023-02-09T01:31:33.396Z,36.24
2023-02-09T01:34:02.078Z,36.05
2023-02-09T01:36:30.357Z,36.50
2023-02-09T01:38:58.999Z,36.15
2023-02-09T01:41:26.406Z,36.24
2023-02-09T01:44:02.555Z,36.15
2023-02-09T01:46:34.313Z,36.32
2023-02-09T01:49:09.662Z,36.59
2023-02-09T01:51:48.724Z,36.78
2023-02-09T01:54:21.153Z,36.66
2023-02-09T01:56:52.163Z,36.36
2023-02-09T01:59:19.353Z,36.62
2023-02-09T02:01:46.278Z,36.66
2023-02-09T02:04:13.563Z,36.94
2023-02-09T02:06:40.538Z,37.06
2023-02-09T02:09:18.012Z,36.88
2023-02-09T02:11:47.488Z,36.54
2023-02-09T02:14:37.849Z,36.85
2023-02-09T02:17:36.719Z,37.03
2023-02-09T02:20:31.240Z,37.09
2023-02-09T02:23:09.286Z,36.73
2023-02-09T02:26:05.694Z,36.28
2023-02-09T02:29:29.569Z,36.90
2023-02-09T02:32:25.189Z,36.83
2023-02-09T02:35:14.939Z,36.93
2023-02-09T02:37:56.617Z,37.35
2023-02-09T02:41:04.542Z,36.49
2023-02-09T02:43:57.142Z,37.25
2023-02-09T02:46:33.967Z,37.22
2023-02-09T02:49:10.538Z,37.54
2023-02-09T02:51:41.900Z,37.69
2023-02-09T02:54:15.161Z,37.93
2023-02-09T02:56:45.502Z,37.59
2023-02-09T02:59:17.049Z,37.67
2023-02-09T03:01:49.787Z,37.97
2023-02-09T03:04:18.027Z,38.03
2023-02-09T03:06:44.557Z,38.06
2023-02-09T03:09:11.620Z,38.67
2023-02-09T03:11:42.181Z,38.64
2023-02-09T03:14:46.725Z,38.33
2023-02-09T03:17:31.561Z,37.93
2023-02-09T03:20:08.503Z,38.33
2023-02-09T03:22:39.022Z,39.18
2023-02-09T03:25:12.390Z,38.85
2023-02-09T03:27:51.824Z,38.71
2023-02-09T03:30:20.186Z,38.39
2023-02-09T03:32:47.633Z,38.42
2023-02-09T03:35:19.278Z,38.53
2023-02-09T03:37:45.859Z,38.93
2023-02-09T03:40:12.638Z,38.89
2023-02-09T03:42:39.167Z,38.76
2023-02-09T03:45:07.934Z,39.45
2023-02-09T03:47:34.592Z,39.17
2023-02-09T03:50:01.067Z,39.23
2023-02-09T03:52:27.685Z,38.78
2023-02-09T03:54:54.200Z,38.98
2023-02-09T03:57:20.711Z,38.95
2023-02-09T03:59:47.251Z,38.72
2023-02-09T04:02:14.776Z,39.00
2023-02-09T04:04:41.374Z,38.84
2023-02-09T04:07:08.011Z,38.72
2023-02-09T04:09:34.771Z,38.60
2023-02-09T04:12:01.490Z,39.07
2023-02-09T04:14:28.103Z,38.88
2023-02-09T04:16:54.730Z,39.32
2023-02-09T04:19:21.235Z,39.22
2023-02-09T04:21:51.450Z,39.17
2023-02-09T04:24:25.965Z,39.29
2023-02-09T04:26:52.596Z,39.16
2023-02-09T04:29:19.197Z,39.14
2023-02-09T04:31:45.735Z,38.98
2023-02-09T04:34:12.386Z,39.20
2023-02-09T04:36:38.933Z,38.41
2023-02-09T04:39:05.488Z,38.84
2023-02-09T04:41:31.995Z,38.80
2023-02-09T04:43:58.586Z,39.23
2023-02-09T04:46:25.092Z,39.29
2023-02-09T04:48:51.653Z,39.50
2023-02-09T04:51:18.124Z,39.74
2023-02-09T04:53:44.910Z,40.24
2023-02-09T04:56:15.877Z,39.82
2023-02-09T04:59:02.110Z,40.06
2023-02-09T05:01:29.245Z,39.87
2023-02-09T05:03:55.835Z,40.22
2023-02-09T05:06:22.787Z,40.65
2023-02-09T05:08:49.298Z,40.53
2023-02-09T05:11:15.967Z,40.00
2023-02-09T05:13:42.605Z,40.14
2023-02-09T05:16:13.437Z,40.34
2023-02-09T05:18:40.056Z,40.29
2023-02-09T05:21:06.576Z,40.50
2023-02-09T05:23:33.100Z,40.15
2023-02-09T05:25:59.651Z,40.05
2023-02-09T05:28:26.353Z,40.49
2023-02-09T05:30:55.780Z,40.11
2023-02-09T05:33:25.808Z,40.44
2023-02-09T05:35:55.616Z,40.58
2023-02-09T05:38:22.215Z,40.89
2023-02-09T05:40:49.070Z,40.49
2023-02-09T05:43:15.924Z,40.64
2023-02-09T05:45:43.173Z,40.98
2023-02-09T05:48:09.763Z,41.61
2023-02-09T05:50:36.264Z,40.79
2023-02-09T05:53:08.137Z,41.14
2023-02-09T05:55:35.129Z,40.83
2023-02-09T05:58:01.677Z,40.83
2023-02-09T06:00:29.720Z,40.65
2023-02-09T06:02:56.918Z,40.73
2023-02-09T06:05:23.462Z,41.08
2023-02-09T06:07:50.468Z,40.56
2023-02-09T06:10:18.027Z,41.02
2023-02-09T06:12:44.677Z,41.15
2023-02-09T06:15:11.515Z,41.12
2023-02-09T06:17:38.190Z,40.83
2023-02-09T06:20:05.244Z,41.09
2023-02-09T06:22:31.843Z,40.68
2023-02-09T06:24:58.429Z,40.58
2023-02-09T06:27:25.053Z,40.73
2023-02-09T06:29:51.609Z,40.41
2023-02-09T06:32:18.287Z,39.90
2023-02-09T06:34:44.800Z,40.62
2023-02-09T06:37:11.400Z,40.73
2023-02-09T06:39:37.880Z,40.66
2023-02-09T06:42:04.457Z,40.56
2023-02-09T06:44:30.953Z,40.46
2023-02-09T06:46:57.582Z,40.63
2023-02-09T06:49:25.199Z,40.81
2023-02-09T06:51:51.854Z,40.52
2023-02-09T06:54:18.537Z,40.59
2023-02-09T06:56:45.082Z,40.73
2023-02-09T06:59:11.617Z,40.73
2023-02-09T07:01:38.506Z,41.40
2023-02-09T07:04:05.067Z,41.31
2023-02-09T07:06:31.645Z,41.12
2023-02-09T07:08:58.137Z,41.64
2023-02-09T07:11:24.700Z,41.00
2023-02-09T07:13:51.207Z,41.64
2023-02-09T07:16:18.633Z,41.76
2023-02-09T07:18:45.211Z,41.91
2023-02-09T07:21:15.766Z,41.79
2023-02-09T07:23:42.393Z,42.52
2023-02-09T07:26:15.109Z,42.84
2023-02-09T07:28:42.136Z,42.74
2023-02-09T07:31:11.520Z,42.21
2023-02-09T07:33:38.440Z,41.69
2023-02-09T07:36:07.799Z,41.83
2023-02-09T07:38:35.389Z,41.72
2023-02-09T07:41:04.047Z,42.44
2023-02-09T07:43:31.346Z,42.23
2023-02-09T07:46:02.519Z,42.51
2023-02-09T07:48:29.978Z,42.38
2023-02-09T07:50:56.899Z,42.60
2023-02-09T07:53:23.885Z,42.48
2023-02-09T07:55:50.492Z,43.16
2023-02-09T07:58:19.745Z,42.42
2023-02-09T08:00:48.147Z,42.18
2023-02-09T08:03:17.194Z,41.87
2023-02-09T08:06:04.176Z,41.80
2023-02-09T08:08:30.794Z,42.16
2023-02-09T08:10:59.382Z,41.75
2023-02-09T08:13:30.962Z,42.29
2023-02-09T08:16:02.706Z,41.94
2023-02-09T08:18:34.533Z,41.91
2023-02-09T08:21:01.312Z,41.82
2023-02-09T08:23:34.341Z,42.04
2023-02-09T08:26:06.266Z,41.51
2023-02-09T08:28:43.617Z,40.65
2023-02-09T08:31:18.737Z,41.09
2023-02-09T08:33:47.411Z,40.97
2023-02-09T08:36:15.037Z,40.87
2023-02-09T08:38:41.956Z,41.33
2023-02-09T08:41:10.527Z,40.86
2023-02-09T08:43:37.108Z,41.48
2023-02-09T08:46:09.259Z,41.21
2023-02-09T08:48:39.792Z,41.43
2023-02-09T08:51:07.998Z,41.52
2023-02-09T08:53:35.268Z,41.41
2023-02-09T08:56:01.892Z,41.36
2023-02-09T08:58:30.056Z,40.94
2023-02-09T09:01:00.333Z,41.31
2023-02-09T09:03:31.189Z,40.74
2023-02-09T09:08:33.115Z,39.40
2023-02-09T09:11:00.004Z,39.13
2023-02-09T09:13:27.194Z,38.77
2023-02-09T09:15:57.306Z,39.00
2023-02-09T09:18:25.680Z,39.69
2023-02-09T09:20:53.152Z,39.86
2023-02-09T09:23:21.082Z,40.51
2023-02-09T09:25:48.145Z,40.62
2023-02-09T09:28:15.647Z,40.31
2023-02-09T09:30:42.413Z,40.58
2023-02-09T09:33:09.087Z,41.10
2023-02-09T09:35:35.717Z,41.27
2023-02-09T09:38:02.420Z,40.09
2023-02-09T09:40:34.458Z,39.82
2023-02-09T09:43:04.882Z,40.71
2023-02-09T09:45:35.190Z,41.98
2023-02-09T09:48:01.966Z,41.15
2023-02-09T09:50:42.686Z,40.83
2023-02-09T09:53:28.656Z,41.23
2023-02-09T09:55:59.214Z,40.15
2023-02-09T09:58:27.696Z,40.02
2023-02-09T10:00:54.569Z,40.01
2023-02-09T10:03:23.528Z,39.30
2023-02-09T10:05:53.060Z,39.46
2023-02-09T10:08:31.614Z,39.39
2023-02-09T10:11:21.586Z,39.47
2023-02-09T10:13:56.808Z,39.23
2023-02-09T10:16:28.098Z,38.67
2023-02-09T10:18:57.955Z,37.87
2023-02-09T10:21:28.074Z,38.13
2023-02-09T10:24:00.818Z,37.42
2023-02-09T10:26:30.886Z,37.66
2023-02-09T10:29:10.958Z,37.73
2023-02-09T10:31:43.386Z,38.31
2023-02-09T10:34:15.337Z,37.83
2023-02-09T10:36:50.437Z,37.69
2023-02-09T10:39:20.552Z,36.72
2023-02-09T10:41:51.218Z,36.91
2023-02-09T10:44:34.771Z,36.74
2023-02-09T10:47:27.007Z,36.75
2023-02-09T10:49:59.572Z,37.44
2023-02-09T10:52:31.015Z,36.90
2023-02-09T10:55:02.551Z,37.30
2023-02-09T10:57:30.628Z,37.21
2023-02-09T10:59:59.517Z,37.40
2023-02-09T11:02:37.149Z,37.93
2023-02-09T11:05:23.739Z,36.92
2023-02-09T11:08:00.364Z,37.18
2023-02-09T11:10:34.956Z,37.58
2023-02-09T11:13:02.360Z,37.17
2023-02-09T11:15:39.369Z,38.11
2023-02-09T11:18:16.902Z,37.70
2023-02-09T11:20:55.405Z,37.57
2023-02-09T11:23:21.971Z,38.53
2023-02-09T11:26:03.847Z,37.98
2023-02-09T11:28:38.828Z,38.12
2023-02-09T11:31:32.867Z,37.15
2023-02-09T11:34:36.824Z,37.23
2023-02-09T11:37:30.486Z,38.54
2023-02-09T11:40:22.954Z,37.41
2023-02-09T11:42:56.782Z,36.96
2023-02-09T11:45:29.306Z,37.73
2023-02-09T11:48:14.080Z,38.07
2023-02-09T11:51:03.577Z,38.25
2023-02-09T11:53:45.069Z,37.94
2023-02-09T11:56:15.026Z,37.85
2023-02-09T11:58:49.447Z,37.48
2023-02-09T12:01:34.208Z,38.03
2023-02-09T12:04:09.743Z,37.99
2023-02-09T12:06:59.652Z,38.33
2023-02-09T12:09:29.496Z,37.07
2023-02-09T12:12:05.739Z,36.98
2023-02-09T12:14:43.792Z,37.15
2023-02-09T12:17:31.493Z,37.52
2023-02-09T12:20:02.492Z,37.63
2023-02-09T12:22:35.175Z,37.43
2023-02-09T12:25:10.907Z,37.64
2023-02-09T12:27:41.123Z,37.72
2023-02-09T12:30:42.723Z,36.73
2023-02-09T12:33:29.330Z,37.83
2023-02-09T12:36:05.034Z,38.72
2023-02-09T12:39:04.740Z,38.02
2023-02-09T12:41:51.810Z,38.74
2023-02-09T12:44:19.298Z,38.60
2023-02-09T12:46:48.506Z,37.10
2023-02-09T12:49:15.632Z,37.81
2023-02-09T12:51:55.184Z,37.87
2023-02-09T12:54:31.409Z,37.66
2023-02-09T12:57:18.855Z,37.82
2023-02-09T13:00:09.572Z,37.91
2023-02-09T13:02:50.755Z,37.20
2023-02-09T13:05:18.908Z,37.37
2023-02-09T13:07:51.580Z,37.35
2023-02-09T13:10:30.709Z,37.80
2023-02-09T13:13:10.344Z,37.97
2023-02-09T13:16:04.732Z,37.37
2023-02-09T13:18:44.209Z,37.74
2023-02-09T13:21:27.315Z,37.55
2023-02-09T13:23:59.484Z,36.79
2023-02-09T13:26:30.911Z,36.74
2023-02-09T13:29:21.432Z,36.56
2023-02-09T13:32:00.731Z,37.11
2023-02-09T13:34:33.585Z,36.83
2023-02-09T13:37:00.263Z,37.04
2023-02-09T13:39:32.137Z,36.82
2023-02-09T13:41:59.044Z,37.65
2023-02-09T13:44:28.822Z,36.91
2023-02-09T13:47:06.494Z,37.40
2023-02-09T13:49:33.076Z,37.63
2023-02-09T13:52:13.395Z,37.15
2023-02-09T13:54:40.900Z,37.71
2023-02-09T13:57:18.104Z,37.57
2023-02-09T13:59:44.918Z,37.89
2023-02-09T14:02:21.086Z,38.89
2023-02-09T14:04:52.999Z,37.78
2023-02-09T14:07:22.258Z,37.89
2023-02-09T14:10:02.638Z,38.41
2023-02-09T14:12:52.459Z,39.07
2023-02-09T14:15:40.401Z,38.75
2023-02-09T14:18:31.917Z,37.99
2023-02-09T14:21:04.534Z,38.13
2023-02-09T14:23:32.787Z,38.01
2023-02-09T14:26:22.530Z,38.01
2023-02-09T14:29:04.835Z,38.47
2023-02-09T14:31:34.969Z,38.29
2023-02-09T14:34:02.128Z,38.17
2023-02-09T14:36:35.696Z,38.42
2023-02-09T14:39:17.079Z,37.83
2023-02-09T14:42:00.437Z,38.22
2023-02-09T14:44:27.686Z,37.76
2023-02-09T14:46:59.456Z,37.56
2023-02-09T14:49:27.231Z,37.16
2023-02-09T14:52:15.037Z,37.18
2023-02-09T14:54:49.805Z,37.01
2023-02-09T14:57:16.661Z,37.24
2023-02-09T14:59:43.227Z,36.76
2023-02-09T15:02:19.980Z,37.39
2023-02-09T15:04:47.033Z,37.21
2023-02-09T15:07:19.987Z,37.45
2023-02-09T15:09:47.054Z,38.29
2023-02-09T15:12:26.249Z,37.31
2023-02-09T15:14:58.494Z,37.69
2023-02-09T15:17:29.052Z,37.72
2023-02-09T15:19:57.008Z,37.49
2023-02-09T15:22:24.736Z,37.34
2023-02-09T15:24:54.355Z,37.34
2023-02-09T15:27:28.510Z,37.92
2023-02-09T15:29:59.011Z,37.20
2023-02-09T15:32:26.621Z,37.83
2023-02-09T15:34:54.190Z,37.97
2023-02-09T15:37:32.840Z,37.90
2023-02-09T15:40:38.990Z,38.25
2023-02-09T15:43:58.532Z,37.63
2023-02-09T15:46:43.975Z,37.45
2023-02-09T15:49:10.922Z,37.15
2023-02-09T15:51:39.476Z,37.70
2023-02-09T15:54:12.002Z,38.34
2023-02-09T15:56:39.447Z,38.54
2023-02-09T15:59:06.199Z,38.24
2023-02-09T16:01:36.926Z,37.97
2023-02-09T16:04:13.937Z,38.95
2023-02-09T16:06:45.971Z,39.67
2023-02-09T16:09:18.847Z,39.18
2023-02-09T16:11:45.566Z,39.15
2023-02-09T16:14:20.440Z,39.42
2023-02-09T16:16:47.916Z,40.14
2023-02-09T16:19:15.116Z,40.19
2023-02-09T16:21:44.835Z,39.63
2023-02-09T16:24:40.599Z,40.01
2023-02-09T16:27:23.272Z,40.33
2023-02-09T16:29:49.923Z,40.42
2023-02-09T16:32:18.670Z,40.51
2023-02-09T16:34:45.704Z,40.67
2023-02-09T16:37:18.342Z,40.63
2023-02-09T16:39:45.657Z,40.61
2023-02-09T16:42:14.355Z,40.71
2023-02-09T16:44:41.601Z,40.99
2023-02-09T16:47:18.761Z,41.39
2023-02-09T16:49:57.698Z,41.09
2023-02-09T16:52:28.138Z,40.62
2023-02-09T16:55:12.017Z,40.64
2023-02-09T16:57:38.726Z,40.31
2023-02-09T17:00:05.573Z,40.56
2023-02-09T17:02:34.187Z,39.95
2023-02-09T17:05:02.827Z,39.97
2023-02-09T17:07:35.701Z,39.65
2023-02-09T17:10:15.226Z,38.88
2023-02-09T17:12:41.867Z,39.63
2023-02-09T17:15:27.463Z,39.88
2023-02-09T17:18:02.351Z,39.53
2023-02-09T17:20:44.103Z,39.69
2023-02-09T17:23:23.570Z,38.62
2023-02-09T17:25:51.681Z,38.89
2023-02-09T17:28:19.138Z,38.90
2023-02-09T17:30:47.875Z,38.75
2023-02-09T17:33:26.724Z,38.66
2023-02-09T17:38:42.648Z,38.59
2023-02-09T17:41:18.800Z,38.90
2023-02-09T17:43:47.011Z,39.05
2023-02-09T17:46:18.802Z,39.02
2023-02-09T17:48:46.725Z,39.64
2023-02-09T17:51:35.936Z,39.57
2023-02-09T17:54:04.178Z,40.04
2023-02-09T17:56:30.774Z,39.80
2023-02-09T17:58:57.670Z,39.84
2023-02-09T18:01:30.936Z,39.95
2023-02-09T18:04:00.435Z,39.67
2023-02-09T18:06:38.772Z,39.68
2023-02-09T18:09:08.363Z,39.79
2023-02-09T18:11:52.038Z,39.59
2023-02-09T18:14:20.920Z,39.69
2023-02-09T18:16:49.049Z,39.69
2023-02-09T18:19:16.783Z,40.00
2023-02-09T18:22:02.748Z,40.02
2023-02-09T18:24:36.899Z,39.68
2023-02-09T18:27:04.059Z,39.91
2023-02-09T18:29:30.649Z,40.07
2023-02-09T18:32:01.840Z,40.61
2023-02-09T18:34:29.667Z,40.08
2023-02-09T18:36:56.223Z,40.35
2023-02-09T18:39:23.043Z,40.22
2023-02-09T18:41:54.310Z,40.48
2023-02-09T18:44:28.502Z,40.41
2023-02-09T18:46:56.042Z,40.84
2023-02-09T18:49:22.809Z,40.53
2023-02-09T18:51:49.645Z,40.98
2023-02-09T18:54:17.192Z,41.11
2023-02-09T18:56:47.421Z,41.49
2023-02-09T18:59:14.911Z,41.61
2023-02-09T19:01:41.904Z,41.93
2023-02-09T19:04:08.956Z,41.77
2023-02-09T19:06:35.729Z,41.80
2023-02-09T19:09:02.461Z,41.50
2023-02-09T19:11:29.128Z,41.71
2023-02-09T19:14:14.472Z,41.85
2023-02-09T19:16:41.326Z,42.75
2023-02-09T19:19:09.420Z,42.57
2023-02-09T19:21:36.258Z,42.64
2023-02-09T19:24:03.489Z,43.24
2023-02-09T19:26:30.206Z,43.53
2023-02-09T19:28:57.489Z,44.09
2023-02-09T19:31:25.395Z,44.04
2023-02-09T19:33:56.615Z,45.18
2023-02-09T19:36:24.446Z,45.21
2023-02-09T19:38:51.415Z,45.12
2023-02-09T19:41:20.241Z,44.77
2023-02-09T19:43:47.980Z,45.25
2023-02-09T19:46:17.749Z,44.98
2023-02-09T19:48:46.537Z,44.84
2023-02-09T19:51:13.393Z,45.31
2023-02-09T19:53:40.673Z,44.95
2023-02-09T19:56:07.664Z,45.45
2023-02-09T19:58:38.940Z,45.69
2023-02-09T20:01:09.295Z,45.76
2023-02-09T20:03:36.968Z,45.98
2023-02-09T20:06:13.169Z,45.73
2023-02-09T20:08:40.817Z,45.86
2023-02-09T20:11:10.347Z,46.33
2023-02-09T20:13:37.600Z,46.98
2023-02-09T20:16:14.686Z,47.06
2023-02-09T20:18:41.640Z,46.88
2023-02-09T20:21:09.418Z,47.22
2023-02-09T20:23:37.246Z,47.89
2023-02-09T20:26:16.690Z,48.65
2023-02-09T20:28:43.319Z,48.30
2023-02-09T20:31:11.231Z,49.82
2023-02-09T20:33:39.652Z,49.06
2023-02-09T20:36:09.922Z,49.04
2023-02-09T20:38:38.031Z,49.72
2023-02-09T20:41:10.087Z,49.27
2023-02-09T20:43:57.219Z,48.78
2023-02-09T20:46:43.943Z,48.90
2023-02-09T20:49:13.562Z,49.22
2023-02-09T20:51:40.426Z,49.63
2023-02-09T20:54:07.061Z,50.17
2023-02-09T20:56:34.009Z,50.17
2023-02-09T20:59:00.789Z,51.07
2023-02-09T21:01:29.100Z,50.54
2023-02-09T21:03:58.760Z,51.07
2023-02-09T21:06:26.231Z,51.22
2023-02-09T21:08:53.460Z,52.16
2023-02-09T21:11:20.130Z,52.40
2023-02-09T21:13:46.975Z,52.88
2023-02-09T21:16:20.257Z,53.25
2023-02-09T21:18:47.076Z,53.32
2023-02-09T21:21:16.574Z,53.44
2023-02-09T21:23:44.776Z,53.83
2023-02-09T21:26:15.605Z,54.34
2023-02-09T21:28:43.899Z,55.08
2023-02-09T21:31:13.449Z,54.49
2023-02-09T21:33:40.859Z,54.72
2023-02-09T21:36:08.765Z,55.03
2023-02-09T21:38:37.117Z,55.48
2023-02-09T21:41:36.527Z,55.69
2023-02-09T21:44:04.919Z,55.75
2023-02-09T21:46:32.241Z,55.96
2023-02-09T21:48:58.785Z,56.10
2023-02-09T21:51:25.519Z,56.17
2023-02-09T21:53:52.297Z,56.12
2023-02-09T21:56:19.270Z,56.71
2023-02-09T21:58:46.065Z,56.77
2023-02-09T22:01:12.980Z,56.56
2023-02-09T22:03:42.221Z,56.93
2023-02-09T22:06:09.015Z,57.48
2023-02-09T22:08:36.021Z,57.65
2023-02-09T22:11:04.228Z,57.51
2023-02-09T22:13:31.529Z,57.34
2023-02-09T22:15:58.685Z,57.61
2023-02-09T22:18:25.662Z,57.45
2023-02-09T22:20:52.311Z,57.35
2023-02-09T22:23:19.833Z,57.50
2023-02-09T22:25:46.678Z,57.41
2023-02-09T22:28:13.994Z,57.74
2023-02-09T22:30:40.898Z,57.51
2023-02-09T22:33:07.891Z,57.40
2023-02-09T22:35:34.429Z,57.79
2023-02-09T22:38:00.991Z,58.23
2023-02-09T22:40:27.615Z,58.24
2023-02-09T22:42:54.212Z,58.85
2023-02-09T22:45:20.720Z,59.11
2023-02-09T22:47:50.272Z,59.35
2023-02-09T22:50:16.880Z,59.83
2023-02-09T22:52:43.437Z,59.61
2023-02-09T22:55:10.121Z,59.59
2023-02-09T22:57:37.930Z,60.02
2023-02-09T23:00:11.620Z,59.51
2023-02-09T23:02:38.346Z,60.08
2023-02-09T23:05:05.101Z,60.87
2023-02-09T23:07:32.082Z,61.45
2023-02-09T23:09:58.838Z,62.51
2023-02-09T23:12:25.609Z,62.32
2023-02-09T23:14:54.504Z,62.45
2023-02-09T23:17:21.345Z,62.90
2023-02-09T23:19:47.989Z,63.17
2023-02-09T23:22:14.611Z,63.21
2023-02-09T23:24:41.154Z,63.31
2023-02-09T23:27:07.781Z,63.18
2023-02-09T23:29:34.472Z,63.09
2023-02-09T23:32:01.325Z,63.55
2023-02-09T23:34:28.016Z,64.24
2023-02-09T23:36:54.773Z,64.14
2023-02-09T23:39:26.760Z,64.42
2023-02-09T23:41:53.348Z,64.02
2023-02-09T23:44:20.509Z,64.34
2023-02-09T23:46:47.586Z,65.43
2023-02-09T23:49:14.274Z,64.92
2023-02-09T23:51:41.025Z,65.46
2023-02-09T23:54:08.233Z,65.03
2023-02-09T23:56:37.125Z,65.17
2023-02-09T23:59:06.583Z,65.16
